Time;durP1;ratioP1;P1;durP2;ratioP2;P2;SDS_P1;SDS_P2;PMS_P1;PMS_P2;Temp;Humidity;BMP_temperature;BMP_pressure;BME280_temperature;BME280_humidity;BME280_pressure;Samples;Min_cycle;Max_cycle;Signal;HPM_P1;HPM_P2
2022/04/27 00:02:24;;;;;;;9.38;7.70;;;;;;;8.90;61.06;102242.88;5030642;28;20032;-63
2022/04/27 00:04:49;;;;;;;10.30;8.13;;;;;;;8.82;61.19;102243.13;5032498;28;20037;-63
2022/04/27 00:07:15;;;;;;;10.52;7.90;;;;;;;8.84;60.93;102238.66;5031007;28;20017;-64
2022/04/27 00:09:41;;;;;;;12.27;8.13;;;;;;;8.85;61.03;102243.03;5048757;28;20036;-63
2022/04/27 00:12:10;;;;;;;10.40;7.82;;;;;;;8.84;60.96;102242.16;5030658;28;20033;-62
2022/04/27 00:14:35;;;;;;;11.32;8.57;;;;;;;8.73;61.32;102240.78;5031676;28;20116;-63
2022/04/27 00:17:03;;;;;;;9.38;8.25;;;;;;;8.79;61.03;102240.56;5029942;28;20442;-63
2022/04/27 00:19:28;;;;;;;13.50;8.23;;;;;;;8.59;61.17;102234.16;5016266;28;20029;-63
2022/04/27 00:21:54;;;;;;;11.70;8.50;;;;;;;8.55;61.53;102234.28;5030861;28;20036;-63
2022/04/27 00:24:19;;;;;;;10.63;8.27;;;;;;;8.59;61.21;102222.69;5028173;28;20036;-63
2022/04/27 00:26:46;;;;;;;11.95;9.05;;;;;;;8.60;60.86;102229.72;5028558;28;20017;-63
2022/04/27 00:29:11;;;;;;;11.32;8.50;;;;;;;8.44;61.48;102231.97;5047283;28;20128;-62
2022/04/27 00:31:37;;;;;;;11.35;8.38;;;;;;;8.47;61.71;102237.22;5031688;28;20392;-63
2022/04/27 00:34:05;;;;;;;9.68;8.45;;;;;;;8.38;61.77;102237.44;5012402;28;20029;-62
2022/04/27 00:36:31;;;;;;;11.05;8.98;;;;;;;8.44;61.81;102241.72;5044743;28;20025;-62
2022/04/27 00:38:58;;;;;;;12.02;8.85;;;;;;;8.38;61.89;102237.44;5031235;28;20468;-63
2022/04/27 00:41:26;;;;;;;12.18;9.07;;;;;;;8.12;62.42;102238.28;5047917;28;20026;-63
2022/04/27 00:43:51;;;;;;;9.63;8.52;;;;;;;8.20;62.52;102239.75;5047639;28;20034;-62
2022/04/27 00:46:17;;;;;;;11.95;8.48;;;;;;;8.14;62.45;102229.34;5030578;28;20025;-63
2022/04/27 00:48:42;;;;;;;11.25;8.63;;;;;;;8.19;62.56;102253.06;5049008;28;20037;-63
2022/04/27 00:51:11;;;;;;;10.73;8.52;;;;;;;8.15;62.63;102254.94;5032329;28;20029;-63
2022/04/27 00:53:37;;;;;;;10.83;8.90;;;;;;;8.13;62.27;102251.47;5033968;28;20068;-63
2022/04/27 00:56:03;;;;;;;9.75;8.75;;;;;;;8.07;62.83;102249.00;5032125;28;20029;-62
2022/04/27 00:58:29;;;;;;;11.57;8.63;;;;;;;8.04;62.33;102249.09;5029816;28;20422;-63
2022/04/27 01:00:55;;;;;;;13.82;9.23;;;;;;;8.08;61.84;102256.03;5032248;28;20049;-63
2022/04/27 01:03:22;;;;;;;10.93;8.82;;;;;;;8.05;62.16;102256.13;5030532;28;20477;-62
2022/04/27 01:05:48;;;;;;;11.85;8.98;;;;;;;7.99;62.07;102248.34;5029880;28;20037;-63
2022/04/27 01:08:19;;;;;;;14.30;9.07;;;;;;;7.97;62.56;102260.78;5033667;28;20079;-63
2022/04/27 01:10:47;;;;;;;12.35;9.13;;;;;;;7.93;62.34;102260.00;5029899;28;20071;-62
2022/04/27 01:13:15;;;;;;;14.07;10.15;;;;;;;7.83;62.78;102257.69;5029965;28;20033;-62
2022/04/27 01:15:41;;;;;;;13.63;9.70;;;;;;;7.80;63.21;102260.41;5029892;28;20113;-63
2022/04/27 01:18:09;;;;;;;14.95;9.90;;;;;;;7.74;63.56;102257.03;5029002;28;20046;-63
2022/04/27 01:20:38;;;;;;;12.02;10.13;;;;;;;7.65;63.84;102256.44;5033374;28;20037;-63
2022/04/27 01:23:07;;;;;;;11.55;9.55;;;;;;;7.68;63.33;102264.28;5029732;28;20048;-63
2022/04/27 01:25:47;;;;;;;12.50;10.05;;;;;;;7.64;63.50;102274.06;5034664;28;20535;-63
2022/04/27 01:28:15;;;;;;;12.55;9.82;;;;;;;7.62;63.24;102264.47;5049356;28;20073;-62
2022/04/27 01:30:41;;;;;;;18.17;10.98;;;;;;;7.55;63.97;102262.88;5044007;28;20079;-63
2022/04/27 01:33:10;;;;;;;11.82;10.60;;;;;;;7.56;64.18;102275.19;5034280;28;20037;-63
2022/04/27 01:35:36;;;;;;;13.32;10.20;;;;;;;7.56;64.20;102272.53;5033103;28;20032;-62
2022/04/27 01:38:03;;;;;;;12.13;9.93;;;;;;;7.53;64.25;102275.28;5033498;28;20029;-62
2022/04/27 01:40:29;;;;;;;11.50;10.38;;;;;;;7.49;64.20;102271.84;5036280;28;20087;-62
2022/04/27 01:42:54;;;;;;;16.10;11.40;;;;;;;7.36;64.57;102268.69;5033156;28;20104;-62
2022/04/27 01:45:22;;;;;;;14.80;11.35;;;;;;;7.43;64.86;102272.88;5033654;28;20033;-62
2022/04/27 01:47:48;;;;;;;15.27;11.20;;;;;;;7.36;64.83;102267.81;5049980;28;20029;-62
2022/04/27 01:50:14;;;;;;;12.65;10.95;;;;;;;7.37;64.89;102281.00;5032959;28;20114;-63
2022/04/27 01:55:26;;;;;;;12.27;11.07;;;;;;;7.26;65.57;102283.03;5031082;28;20139;-62
2022/04/27 01:57:53;;;;;;;12.65;11.27;;;;;;;7.19;65.04;102282.34;5049936;28;20477;-62
2022/04/27 02:00:20;;;;;;;13.25;11.85;;;;;;;7.21;65.21;102275.25;5049727;28;20108;-62
2022/04/27 02:02:46;;;;;;;14.93;12.68;;;;;;;7.15;65.35;102277.19;5047692;28;20101;-62
2022/04/27 02:05:11;;;;;;;14.63;12.30;;;;;;;7.15;65.52;102278.06;5034211;28;20069;-62
2022/04/27 02:07:37;;;;;;;14.93;12.15;;;;;;;7.11;65.52;102279.00;5033124;28;20080;-62
2022/04/27 02:10:03;;;;;;;14.25;12.43;;;;;;;7.09;65.63;102272.03;5033699;28;20036;-63
2022/04/27 02:12:29;;;;;;;16.48;13.25;;;;;;;7.13;65.22;102274.56;5033369;28;20041;-62
2022/04/27 02:14:55;;;;;;;15.18;12.95;;;;;;;7.18;65.06;102282.41;5033672;28;20032;-63
2022/04/27 02:17:26;;;;;;;15.82;12.82;;;;;;;7.16;65.28;102279.78;5032045;28;20112;-62
2022/04/27 02:19:55;;;;;;;19.88;12.55;;;;;;;7.12;65.55;102280.78;5047820;28;20033;-63
2022/04/27 02:22:21;;;;;;;14.77;12.73;;;;;;;7.13;66.15;102284.28;5047874;28;20046;-62
2022/04/27 02:24:46;;;;;;;15.63;13.38;;;;;;;7.11;65.87;102286.09;5033076;28;20029;-63
2022/04/27 02:27:12;;;;;;;14.48;12.48;;;;;;;6.99;65.82;102282.84;5032200;28;20048;-62
2022/04/27 02:29:37;;;;;;;13.57;12.10;;;;;;;6.95;65.63;102288.25;5032627;28;20117;-62
2022/04/27 02:32:05;;;;;;;15.20;12.88;;;;;;;6.94;66.39;102294.44;5049787;28;20128;-63
2022/04/27 02:34:30;;;;;;;14.20;12.45;;;;;;;6.91;66.59;102289.22;5031296;28;20034;-62
2022/04/27 02:36:58;;;;;;;17.77;12.70;;;;;;;6.86;66.43;102288.50;5033739;28;20044;-62
2022/04/27 02:39:23;;;;;;;14.60;13.07;;;;;;;6.88;67.27;102294.59;5048220;28;20037;-62
2022/04/27 02:41:49;;;;;;;19.08;12.90;;;;;;;6.88;66.52;102300.75;5034801;28;20056;-62
2022/04/27 02:44:17;;;;;;;14.55;12.65;;;;;;;6.90;66.56;102295.44;5047713;28;20040;-62
2022/04/27 02:46:43;;;;;;;17.60;14.13;;;;;;;6.83;66.89;102302.66;5050636;28;20040;-62
2022/04/27 02:51:53;;;;;;;22.63;13.70;;;;;;;6.81;67.40;102313.25;5033023;28;20106;-62
2022/04/27 02:54:20;;;;;;;17.40;14.50;;;;;;;6.85;67.63;102311.41;5033946;28;20037;-62
2022/04/27 02:56:48;;;;;;;21.15;13.75;;;;;;;6.75;68.25;102309.91;5032792;28;20025;-63
2022/04/27 02:59:15;;;;;;;17.90;14.00;;;;;;;6.76;67.49;102309.84;5034023;28;20033;-62
2022/04/27 03:01:41;;;;;;;21.50;14.35;;;;;;;6.75;67.37;102318.69;5033688;28;20108;-62
2022/04/27 03:04:08;;;;;;;17.02;15.02;;;;;;;6.70;67.62;102317.06;5030988;28;20187;-62
2022/04/27 03:06:33;;;;;;;16.70;14.35;;;;;;;6.62;68.03;102309.31;5030064;28;20061;-62
2022/04/27 03:08:59;;;;;;;21.25;14.68;;;;;;;6.58;67.55;102316.44;5035672;28;20130;-62
2022/04/27 03:11:27;;;;;;;17.42;14.25;;;;;;;6.60;68.41;102311.97;5050729;28;20535;-62
2022/04/27 03:13:52;;;;;;;16.88;14.55;;;;;;;6.63;68.02;102316.34;5032624;28;20029;-62
2022/04/27 03:16:18;;;;;;;21.02;14.77;;;;;;;6.62;67.46;102317.25;5032783;28;20034;-63
2022/04/27 03:18:44;;;;;;;16.73;14.63;;;;;;;6.65;67.40;102317.19;5030138;28;20080;-62
2022/04/27 03:21:10;;;;;;;18.98;14.55;;;;;;;6.58;66.89;102311.13;5030067;28;20397;-62
2022/04/27 03:23:36;;;;;;;16.38;14.25;;;;;;;6.56;67.35;102320.03;5046980;28;20034;-62
2022/04/27 03:26:05;;;;;;;16.10;14.40;;;;;;;6.55;67.12;102320.91;5046349;28;20036;-62
2022/04/27 03:28:30;;;;;;;18.02;14.95;;;;;;;6.48;67.75;102308.75;5046824;28;20492;-62
2022/04/27 03:30:56;;;;;;;18.30;15.27;;;;;;;6.43;67.64;102314.13;5030117;28;20033;-62
2022/04/27 03:33:22;;;;;;;20.30;16.15;;;;;;;6.47;67.66;102315.81;5033556;28;20029;-62
2022/04/27 03:35:47;;;;;;;18.92;14.63;;;;;;;6.47;67.68;102310.53;5031504;28;20526;-62
2022/04/27 03:38:15;;;;;;;20.40;15.93;;;;;;;6.31;67.40;102303.84;5030465;28;20037;-62
2022/04/27 03:40:43;;;;;;;20.52;16.02;;;;;;;6.34;67.79;102315.19;5030053;28;20029;-63
2022/04/27 03:43:09;;;;;;;17.83;14.38;;;;;;;6.28;67.77;102322.41;5029192;28;20025;-62
2022/04/27 03:45:35;;;;;;;18.73;16.13;;;;;;;6.18;67.45;102321.75;5033442;28;20445;-62
2022/04/27 03:48:01;;;;;;;17.75;15.82;;;;;;;6.06;68.33;102321.97;5046730;28;20033;-62
2022/04/27 03:50:27;;;;;;;18.80;16.27;;;;;;;6.17;68.30;102324.41;5031449;28;20033;-62
2022/04/27 03:52:53;;;;;;;17.70;15.60;;;;;;;6.17;67.97;102327.91;5032361;28;20473;-62
2022/04/27 03:55:19;;;;;;;19.63;16.30;;;;;;;6.13;68.78;102327.09;5030428;28;20035;-62
2022/04/27 03:57:44;;;;;;;20.55;15.35;;;;;;;6.13;68.22;102336.81;5029523;28;20025;-62
2022/04/27 04:00:12;;;;;;;20.70;15.52;;;;;;;6.00;68.17;102337.94;5032180;28;20121;-62
2022/04/27 04:02:37;;;;;;;19.17;15.30;;;;;;;5.99;67.96;102345.00;5033128;28;20032;-62
2022/04/27 04:05:05;;;;;;;18.27;16.08;;;;;;;5.86;68.16;102331.13;5045724;28;20037;-62
2022/04/27 04:07:31;;;;;;;17.65;15.75;;;;;;;5.86;68.26;102339.06;5030034;28;20335;-62
2022/04/27 04:09:57;;;;;;;20.50;16.10;;;;;;;5.87;68.34;102340.78;5046300;28;20021;-62
2022/04/27 04:12:23;;;;;;;17.98;16.00;;;;;;;5.83;67.93;102343.53;5033290;28;20041;-62
2022/04/27 04:14:48;;;;;;;18.48;16.48;;;;;;;5.83;68.06;102344.41;5030546;28;20052;-62
2022/04/27 04:17:14;;;;;;;21.95;17.52;;;;;;;5.75;68.16;102348.94;5033066;28;20509;-62
2022/04/27 04:19:39;;;;;;;21.50;17.15;;;;;;;5.76;69.20;102353.31;5030618;28;20037;-62
2022/04/27 04:22:06;;;;;;;19.92;17.73;;;;;;;5.74;68.71;102349.00;5030084;28;20033;-62
2022/04/27 04:24:32;;;;;;;19.33;17.20;;;;;;;5.73;69.40;102348.09;5030134;28;20022;-62
2022/04/27 04:29:41;;;;;;;20.92;16.98;;;;;;;5.77;69.23;102360.34;5043926;28;20064;-62
2022/04/27 04:32:08;;;;;;;19.63;17.05;;;;;;;5.70;69.53;102359.59;5032699;28;20037;-62
2022/04/27 04:34:34;;;;;;;24.70;18.92;;;;;;;5.73;69.49;102357.78;5045429;28;20033;-62
2022/04/27 04:37:01;;;;;;;18.77;16.67;;;;;;;5.73;68.49;102355.16;5045738;28;20036;-62
2022/04/27 04:39:27;;;;;;;21.15;17.35;;;;;;;5.70;69.26;102366.63;5029779;28;20029;-62
2022/04/27 04:41:53;;;;;;;22.35;19.17;;;;;;;5.61;70.31;102369.44;5032192;28;20035;-62
2022/04/27 04:44:18;;;;;;;22.50;17.92;;;;;;;5.68;70.09;102364.03;5030049;28;20498;-62
2022/04/27 04:46:44;;;;;;;27.60;18.63;;;;;;;5.69;69.92;102378.09;5031830;28;20037;-62
2022/04/27 04:49:10;;;;;;;20.38;18.15;;;;;;;5.72;69.64;102372.75;5030329;28;20460;-62
2022/04/27 04:51:38;;;;;;;25.05;17.55;;;;;;;5.70;70.11;102379.84;5046134;28;20037;-62
2022/04/27 04:54:04;;;;;;;22.98;18.77;;;;;;;5.74;69.65;102385.94;5029909;28;20724;-62
2022/04/27 04:56:32;;;;;;;20.65;17.75;;;;;;;5.70;69.25;102383.34;5032109;28;20037;-62
2022/04/27 04:58:58;;;;;;;20.95;17.15;;;;;;;5.65;70.71;102382.56;5031640;28;20045;-62
2022/04/27 05:01:23;;;;;;;24.13;18.75;;;;;;;5.67;70.21;102386.03;5046704;28;20091;-62
2022/04/27 05:03:48;;;;;;;20.45;17.40;;;;;;;5.72;70.41;102385.97;5045263;28;20366;-62
2022/04/27 05:06:14;;;;;;;22.00;18.42;;;;;;;5.81;70.40;102388.44;5033951;28;20065;-62
2022/04/27 05:08:43;;;;;;;20.00;17.95;;;;;;;5.81;70.99;102396.34;5049413;28;20475;-62
2022/04/27 05:11:09;;;;;;;21.80;18.80;;;;;;;5.87;70.15;102396.25;5050896;28;20033;-62
2022/04/27 05:13:37;;;;;;;19.60;17.50;;;;;;;5.91;70.21;102391.75;5046698;28;20298;-62
2022/04/27 05:16:04;;;;;;;21.30;18.50;;;;;;;5.96;70.80;102394.38;5034447;28;20033;-62
2022/04/27 05:18:29;;;;;;;22.60;18.23;;;;;;;6.00;71.04;102396.03;5034748;28;20037;-62
2022/04/27 05:20:58;;;;;;;21.73;18.88;;;;;;;6.08;70.57;102396.75;5050558;28;20041;-62
2022/04/27 05:23:24;;;;;;;26.35;19.33;;;;;;;6.06;70.85;102394.16;5035570;28;20033;-62
2022/04/27 05:25:49;;;;;;;25.50;20.17;;;;;;;6.18;71.07;102403.63;5035772;28;20391;-62
2022/04/27 05:28:16;;;;;;;21.65;19.35;;;;;;;6.23;71.12;102412.31;5034520;28;20072;-62
2022/04/27 05:33:28;;;;;;;24.10;19.02;;;;;;;6.40;71.74;102419.91;5034342;28;20572;-62
2022/04/27 05:35:54;;;;;;;22.95;18.80;;;;;;;6.42;71.58;102418.13;5033929;28;20115;-62
2022/04/27 05:38:20;;;;;;;22.13;19.05;;;;;;;6.49;71.51;102429.41;5036073;28;20033;-62
2022/04/27 05:40:46;;;;;;;21.92;17.77;;;;;;;6.60;71.13;102435.38;5032544;28;20132;-62
2022/04/27 05:43:11;;;;;;;19.55;17.55;;;;;;;6.65;72.04;102430.84;5033578;28;20043;-62
2022/04/27 05:45:37;;;;;;;19.90;17.75;;;;;;;6.71;71.37;102433.38;5033152;28;20034;-62
2022/04/27 05:48:03;;;;;;;19.15;17.10;;;;;;;6.77;71.70;102430.59;5032850;28;20029;-62
2022/04/27 05:50:29;;;;;;;19.95;17.85;;;;;;;6.84;71.86;102444.53;5033697;28;20461;-62
2022/04/27 05:52:56;;;;;;;23.33;17.80;;;;;;;6.96;72.11;102430.19;5033294;28;20041;-62
2022/04/27 05:55:25;;;;;;;21.20;17.63;;;;;;;7.04;71.99;102430.88;5035200;28;20048;-62
2022/04/27 05:57:51;;;;;;;19.80;15.25;;;;;;;7.13;71.43;102432.44;5037469;28;20038;-62
2022/04/27 06:00:19;;;;;;;18.00;15.85;;;;;;;7.26;71.49;102444.47;5033801;28;20033;-62
2022/04/27 06:02:45;;;;;;;18.33;16.42;;;;;;;7.29;71.63;102439.09;5033787;28;20076;-62
2022/04/27 06:05:13;;;;;;;20.13;15.45;;;;;;;7.47;71.05;102446.63;5048221;28;20060;-62
2022/04/27 06:07:39;;;;;;;20.65;15.90;;;;;;;7.60;70.65;102438.38;5033024;28;20021;-62
2022/04/27 06:10:06;;;;;;;19.88;14.40;;;;;;;7.68;69.95;102434.63;5048642;28;20037;-62
2022/04/27 06:12:39;;;;;;;24.10;13.80;;;;;;;7.87;69.17;102442.94;5033937;28;20029;-62
2022/04/27 06:15:10;;;;;;;15.18;13.68;;;;;;;8.00;68.71;102446.16;5033242;28;20115;-62
2022/04/27 06:17:36;;;;;;;19.13;12.95;;;;;;;8.16;68.09;102451.91;5033941;28;20045;-63
2022/04/27 06:20:02;;;;;;;17.42;12.73;;;;;;;8.18;67.81;102448.31;5032710;28;20111;-63
2022/04/27 06:22:30;;;;;;;20.17;13.57;;;;;;;8.25;67.61;102456.09;5033700;28;20544;-63
2022/04/27 06:24:56;;;;;;;15.38;12.43;;;;;;;8.37;67.54;102447.78;5036332;28;20121;-63
2022/04/27 06:27:22;;;;;;;20.90;12.70;;;;;;;8.51;67.07;102450.97;5033858;28;20416;-63
2022/04/27 06:29:48;;;;;;;15.43;12.48;;;;;;;8.67;66.08;102458.47;5031985;28;20064;-63
2022/04/27 06:32:15;;;;;;;17.45;12.70;;;;;;;8.85;65.59;102466.78;5032871;28;20026;-63
2022/04/27 06:34:41;;;;;;;18.58;13.02;;;;;;;8.96;65.38;102458.47;5031052;28;20029;-63
2022/04/27 06:37:06;;;;;;;17.70;11.95;;;;;;;9.07;65.09;102466.97;5033606;28;20047;-63
2022/04/27 06:39:34;;;;;;;17.65;12.63;;;;;;;9.19;64.50;102478.16;5031223;28;20343;-64
2022/04/27 06:42:00;;;;;;;19.42;12.55;;;;;;;9.24;64.06;102468.25;5031842;28;20037;-63
2022/04/27 06:44:27;;;;;;;16.42;11.18;;;;;;;9.36;62.95;102469.66;5035520;28;20036;-64
2022/04/27 06:46:53;;;;;;;17.48;11.75;;;;;;;9.46;62.78;102469.28;5049114;28;20047;-64
2022/04/27 06:49:19;;;;;;;19.25;11.75;;;;;;;9.52;62.67;102477.06;5050283;28;20037;-64
2022/04/27 06:51:45;;;;;;;14.02;11.73;;;;;;;9.59;62.96;102485.72;5032718;28;20029;-64
2022/04/27 06:54:11;;;;;;;14.13;12.45;;;;;;;9.69;62.67;102480.97;5035419;28;20108;-63
2022/04/27 06:56:36;;;;;;;16.75;12.25;;;;;;;9.76;62.51;102480.72;5048125;28;20504;-64
2022/04/27 06:59:02;;;;;;;17.38;11.27;;;;;;;9.90;62.60;102482.03;5031878;28;20152;-63
2022/04/27 07:01:27;;;;;;;21.38;12.57;;;;;;;9.95;60.87;102488.06;5015251;28;20094;-63
2022/04/27 07:03:55;;;;;;;15.88;11.15;;;;;;;10.01;60.49;102469.25;5048001;28;20037;-63
2022/04/27 07:06:21;;;;;;;16.58;11.10;;;;;;;10.09;60.75;102485.81;5031424;28;20033;-63
2022/04/27 07:08:51;;;;;;;18.52;11.32;;;;;;;10.26;60.43;102492.31;5030337;28;20078;-63
2022/04/27 07:11:17;;;;;;;;;;;;;;;10.49;61.69;102486.22;5047614;28;20484;-64
2022/04/27 07:13:42;;;;;;;15.85;11.50;;;;;;;10.51;60.52;102487.88;5059989;28;19925;-64
2022/04/27 07:16:09;;;;;;;12.65;10.40;;;;;;;10.64;60.04;102493.63;5049904;28;20037;-64
2022/04/27 07:18:34;;;;;;;19.45;10.80;;;;;;;10.59;59.33;102492.91;5048973;28;20058;-64
2022/04/27 07:21:00;;;;;;;15.27;10.77;;;;;;;10.68;58.88;102487.28;5014375;28;20033;-63
2022/04/27 07:23:28;;;;;;;18.02;11.40;;;;;;;10.78;58.71;102493.97;5016103;28;20099;-64
2022/04/27 07:25:54;;;;;;;18.27;11.27;;;;;;;10.82;59.19;102498.25;5047564;28;20091;-63
2022/04/27 07:28:20;;;;;;;14.70;10.93;;;;;;;10.93;57.79;102503.19;5048549;28;20045;-64
2022/04/27 07:30:45;;;;;;;11.98;9.50;;;;;;;11.08;57.54;102507.91;5034268;28;20029;-64
2022/04/27 07:33:13;;;;;;;13.25;9.50;;;;;;;11.15;55.83;102497.91;5039441;28;20113;-64
2022/04/27 07:35:39;;;;;;;12.32;9.45;;;;;;;11.25;55.80;102509.06;5031758;28;20033;-64
2022/04/27 07:38:04;;;;;;;11.75;8.38;;;;;;;11.38;54.24;102518.28;5049105;28;20041;-63
2022/04/27 07:40:30;;;;;;;13.52;9.32;;;;;;;11.48;54.49;102518.81;5046658;28;20033;-63
2022/04/27 07:42:56;;;;;;;12.68;9.25;;;;;;;11.54;53.54;102515.91;5047552;28;20041;-63
2022/04/27 07:45:22;;;;;;;12.35;8.63;;;;;;;11.78;53.13;102519.34;5031857;28;20028;-63
2022/04/27 07:47:48;;;;;;;13.10;8.27;;;;;;;11.77;52.85;102518.50;5042513;28;20033;-63
2022/04/27 07:50:15;;;;;;;10.73;9.00;;;;;;;11.90;52.29;102513.53;5033263;28;20379;-63
2022/04/27 07:52:41;;;;;;;13.95;8.77;;;;;;;11.81;51.85;102504.09;5039067;28;20362;-63
2022/04/27 07:55:08;;;;;;;13.00;9.57;;;;;;;11.91;51.79;102509.06;5023662;28;20591;-63
2022/04/27 07:57:34;;;;;;;11.60;8.48;;;;;;;11.95;50.76;102522.22;5046941;28;20068;-63
2022/04/27 08:00:01;;;;;;;11.70;8.30;;;;;;;12.16;50.23;102509.78;5047737;28;20426;-63
2022/04/27 08:02:26;;;;;;;12.55;9.02;;;;;;;12.28;51.72;102521.72;5047289;28;20053;-64
2022/04/27 08:04:52;;;;;;;11.77;8.40;;;;;;;12.38;51.34;102516.84;5030179;28;20484;-63
2022/04/27 08:07:18;;;;;;;11.02;8.10;;;;;;;12.46;50.91;102520.91;5031476;28;20101;-63
2022/04/27 08:09:43;;;;;;;9.40;6.60;;;;;;;12.66;47.98;102521.84;5030866;28;20498;-63
2022/04/27 08:12:09;;;;;;;8.88;5.28;;;;;;;12.80;46.06;102524.75;5032396;28;20021;-63
2022/04/27 08:14:37;;;;;;;8.38;5.75;;;;;;;12.80;46.06;102531.91;5030475;28;20020;-64
2022/04/27 08:17:03;;;;;;;8.30;6.00;;;;;;;12.86;47.48;102529.81;5045821;28;20542;-64
2022/04/27 08:19:31;;;;;;;7.18;4.80;;;;;;;12.98;45.90;102524.84;5048850;28;20056;-63
2022/04/27 08:21:57;;;;;;;8.20;6.10;;;;;;;13.16;46.71;102529.31;5045730;28;20029;-63
2022/04/27 08:24:23;;;;;;;8.45;5.80;;;;;;;13.30;43.92;102534.91;5013620;28;20044;-64
2022/04/27 08:26:49;;;;;;;7.60;4.90;;;;;;;13.53;44.66;102532.94;5030562;28;20013;-64
2022/04/27 08:29:15;;;;;;;10.55;5.10;;;;;;;13.58;45.09;102529.09;5046789;28;20047;-64
2022/04/27 08:31:40;;;;;;;8.98;6.10;;;;;;;13.64;44.20;102528.78;5030430;28;20099;-63
2022/04/27 08:34:07;;;;;;;9.02;5.93;;;;;;;13.73;43.99;102537.31;5045718;28;20120;-63
2022/04/27 08:36:32;;;;;;;10.48;5.28;;;;;;;13.69;43.58;102533.06;5062151;28;20033;-63
2022/04/27 08:38:59;;;;;;;7.22;5.32;;;;;;;13.73;44.00;102530.16;5032925;28;20037;-64
2022/04/27 08:41:26;;;;;;;7.22;5.40;;;;;;;13.83;43.76;102531.44;5030478;28;20334;-63
2022/04/27 08:43:52;;;;;;;8.10;6.18;;;;;;;13.95;44.02;102543.34;5043747;28;20128;-64
2022/04/27 08:46:17;;;;;;;7.03;5.00;;;;;;;14.07;42.34;102541.84;5046246;28;20116;-64
2022/04/27 08:48:47;;;;;;;12.57;5.80;;;;;;;14.02;42.20;102546.56;5057221;28;20095;-63
2022/04/27 08:51:13;;;;;;;11.50;5.43;;;;;;;14.10;42.05;102547.06;5032682;28;20071;-64
2022/04/27 08:53:39;;;;;;;8.07;6.05;;;;;;;14.28;42.73;102553.28;5029831;28;20033;-64
2022/04/27 08:56:04;;;;;;;7.38;6.07;;;;;;;14.44;41.29;102548.88;5029959;28;20022;-63
2022/04/27 08:58:30;;;;;;;8.20;5.55;;;;;;;14.47;41.06;102556.75;5046721;28;20038;-63
2022/04/27 09:00:56;;;;;;;7.43;5.72;;;;;;;14.42;40.76;102555.25;5029178;28;20499;-64
2022/04/27 09:03:23;;;;;;;6.78;5.28;;;;;;;14.63;40.75;102559.50;5045504;28;20469;-63
2022/04/27 09:06:00;;;;;;;7.10;6.13;;;;;;;14.85;41.72;102561.03;5029441;28;20104;-63
2022/04/27 09:08:49;;;;;;;9.65;6.25;;;;;;;14.99;40.69;102553.97;5030430;28;20539;-64
2022/04/27 09:11:21;;;;;;;;;;;;;;;15.16;41.58;102553.06;5030441;28;20029;-64
2022/04/27 09:13:57;;;;;;;7.55;6.65;;;;;;;15.19;40.64;102552.91;5029863;28;19920;-63
2022/04/27 09:22:07;;;;;;;8.18;5.90;;;;;;;15.41;38.66;102552.56;5030487;28;20099;-64
2022/04/27 09:24:51;;;;;;;8.27;6.40;;;;;;;15.38;37.40;102559.91;5027575;28;20037;-63
2022/04/27 09:27:21;;;;;;;10.02;6.53;;;;;;;15.28;37.95;102553.34;5012104;28;20473;-64
2022/04/27 09:30:16;;;;;;;9.50;6.03;;;;;;;15.34;39.84;102553.84;5027874;28;20045;-64
2022/04/27 09:32:51;;;;;;;9.23;6.35;;;;;;;15.35;39.60;102554.72;5015694;28;20099;-64
2022/04/27 09:35:37;;;;;;;7.30;5.70;;;;;;;15.36;39.39;102556.47;5027283;28;20114;-64
2022/04/27 09:38:19;;;;;;;11.73;6.70;;;;;;;15.62;38.83;102546.97;5028243;28;20039;-64
2022/04/27 09:40:50;;;;;;;7.38;6.20;;;;;;;15.73;39.59;102557.94;5028157;28;20466;-64
2022/04/27 09:43:16;;;;;;;9.18;6.40;;;;;;;15.73;37.66;102554.41;5026312;28;20053;-64
2022/04/27 09:45:44;;;;;;;9.40;5.95;;;;;;;15.81;38.36;102554.81;5028095;28;20037;-64
2022/04/27 09:48:20;;;;;;;10.80;6.60;;;;;;;15.86;37.46;102563.47;5028385;28;20025;-64
2022/04/27 09:50:48;;;;;;;8.40;5.85;;;;;;;15.93;38.13;102558.63;5027090;28;20120;-64
2022/04/27 09:53:15;;;;;;;7.28;6.30;;;;;;;16.26;37.72;102561.13;5013969;28;20076;-64
2022/04/27 09:55:46;;;;;;;9.07;6.68;;;;;;;16.37;37.26;102561.34;5032504;28;20108;-64
2022/04/27 09:58:18;;;;;;;7.88;6.47;;;;;;;16.27;36.60;102565.56;5049390;28;20053;-64
2022/04/27 10:00:45;;;;;;;11.70;6.70;;;;;;;16.28;37.31;102548.47;5049028;28;20022;-64
2022/04/27 10:03:14;;;;;;;9.95;6.57;;;;;;;16.24;36.88;102563.06;5033638;28;20104;-64
2022/04/27 10:05:40;;;;;;;10.75;7.00;;;;;;;16.47;37.45;102550.91;5030941;28;20044;-64
2022/04/27 10:08:07;;;;;;;8.63;6.35;;;;;;;16.54;37.24;102541.53;5049148;28;20029;-65
2022/04/27 10:10:37;;;;;;;7.50;6.78;;;;;;;16.62;37.27;102547.31;5033636;28;20029;-64
2022/04/27 10:13:18;;;;;;;8.70;7.20;;;;;;;16.53;35.83;102555.91;5033704;28;20017;-64
2022/04/27 10:15:45;;;;;;;9.90;6.40;;;;;;;16.95;36.63;102554.25;5046669;28;20069;-64
2022/04/27 10:18:18;;;;;;;7.40;6.65;;;;;;;17.08;37.35;102551.66;5048318;28;20095;-64
2022/04/27 10:20:48;;;;;;;8.85;6.82;;;;;;;17.42;36.36;102545.84;5033244;28;20424;-64
2022/04/27 10:23:18;;;;;;;11.15;6.97;;;;;;;17.59;35.38;102547.44;5033290;28;20021;-64
2022/04/27 10:26:15;;;;;;;7.78;6.78;;;;;;;17.73;36.63;102546.50;5048776;28;20037;-64
2022/04/27 10:28:45;;;;;;;9.82;6.90;;;;;;;17.64;35.30;102541.75;5048539;28;20116;-64
2022/04/27 10:31:10;;;;;;;;;;;;;;;18.02;35.44;102541.06;5033667;28;20056;-64
2022/04/27 10:33:47;;;;;;;11.57;7.00;;;;;;;17.78;36.12;102535.50;5032158;28;19913;-65
2022/04/27 10:36:28;;;;;;;9.68;7.13;;;;;;;17.96;35.29;102539.63;5033186;28;20033;-64
2022/04/27 10:39:11;;;;;;;9.57;7.15;;;;;;;18.21;34.91;102538.84;5032887;28;20030;-65
2022/04/27 10:41:39;;;;;;;12.23;6.90;;;;;;;17.82;34.50;102545.06;5033099;28;20029;-65
2022/04/27 10:44:04;;;;;;;11.73;7.30;;;;;;;17.82;34.60;102537.00;5035272;28;20026;-64
2022/04/27 10:46:40;;;;;;;7.97;7.18;;;;;;;18.01;35.18;102542.03;5037756;28;20025;-65
2022/04/27 10:49:22;;;;;;;10.32;7.45;;;;;;;18.15;34.65;102536.56;5033905;28;20481;-65
2022/04/27 10:52:04;;;;;;;9.88;7.97;;;;;;;18.24;34.24;102533.25;5048221;28;20104;-65
2022/04/27 10:54:32;;;;;;;8.55;6.78;;;;;;;18.26;34.06;102525.03;5051512;28;20037;-64
2022/04/27 10:57:16;;;;;;;8.05;7.28;;;;;;;18.44;33.37;102534.53;5032802;28;20021;-63
2022/04/27 10:59:59;;;;;;;7.78;6.97;;;;;;;18.55;34.34;102515.78;5033016;28;20389;-65
2022/04/27 11:02:43;;;;;;;9.38;7.30;;;;;;;18.91;33.41;102530.38;5032539;28;20025;-65
2022/04/27 11:05:11;;;;;;;9.93;6.95;;;;;;;18.98;34.32;102523.56;5046979;28;20037;-65
2022/04/27 11:08:26;;;;;;;8.30;6.67;;;;;;;19.54;33.87;102535.72;5032585;28;20423;-65
2022/04/27 11:10:55;;;;;;;10.75;7.85;;;;;;;19.38;31.65;102534.16;4972074;28;20031;-65
2022/04/27 11:13:25;;;;;;;9.82;6.57;;;;;;;19.63;32.65;102527.81;4988042;28;20046;-65
2022/04/27 11:15:51;;;;;;;8.93;6.03;;;;;;;19.68;31.51;102527.50;5014792;28;20044;-65
2022/04/27 11:18:17;;;;;;;10.40;6.50;;;;;;;19.83;32.77;102526.34;5030867;28;20050;-65
2022/04/27 11:20:43;;;;;;;9.05;6.60;;;;;;;19.25;31.56;102530.63;5030420;28;20473;-65
2022/04/27 11:23:22;;;;;;;8.68;5.60;;;;;;;19.04;33.74;102523.13;5033106;28;20430;-65
2022/04/27 11:25:54;;;;;;;9.85;6.63;;;;;;;18.68;33.53;102521.22;5048173;28;20024;-65
2022/04/27 11:28:19;;;;;;;8.38;6.80;;;;;;;18.44;32.85;102521.06;5032087;28;20037;-65
2022/04/27 11:30:45;;;;;;;8.20;6.88;;;;;;;18.71;33.30;102521.00;5024549;28;20080;-65
2022/04/27 11:33:11;;;;;;;7.35;6.65;;;;;;;19.15;33.24;102527.75;5046867;28;20033;-65
2022/04/27 11:35:44;;;;;;;9.50;6.78;;;;;;;19.69;31.87;102530.06;5031776;28;20022;-65
2022/04/27 11:38:13;;;;;;;11.43;6.78;;;;;;;20.50;29.90;102525.69;5033860;28;20025;-65
2022/04/27 11:40:39;;;;;;;7.03;6.20;;;;;;;21.10;29.19;102518.22;5030730;28;20033;-65
2022/04/27 11:43:05;;;;;;;9.52;6.38;;;;;;;21.29;27.79;102521.13;5015387;28;20036;-65